createdAt,value
2019-04-11T00:00:09.028Z,992.66
2019-04-11T00:02:08.861Z,992.71
2019-04-11T00:04:08.575Z,993.02
2019-04-11T00:06:09.593Z,992.88
2019-04-11T00:08:10.056Z,993.06
2019-04-11T00:10:08.980Z,993.15
2019-04-11T00:12:08.885Z,992.72
2019-04-11T00:14:09.010Z,992.95
2019-04-11T00:16:08.969Z,992.78
2019-04-11T00:18:08.826Z,992.60
2019-04-11T00:20:09.677Z,993.13
2019-04-11T00:22:09.033Z,992.74
2019-04-11T00:24:10.324Z,992.67
2019-04-11T00:26:08.867Z,992.41
2019-04-11T00:28:09.888Z,992.63
2019-04-11T00:30:10.050Z,992.95
2019-04-11T00:32:09.685Z,993.02
2019-04-11T00:34:08.980Z,993.16
2019-04-11T00:36:09.039Z,992.77
2019-04-11T00:38:09.810Z,992.62
2019-04-11T00:40:09.362Z,992.76
2019-04-11T00:42:10.261Z,992.76
2019-04-11T00:44:08.978Z,992.85
2019-04-11T00:46:09.907Z,992.71
2019-04-11T00:48:09.250Z,992.41
2019-04-11T00:50:09.010Z,992.88
2019-04-11T00:52:09.037Z,993.29
2019-04-11T00:54:09.057Z,993.19
2019-04-11T00:56:09.737Z,992.82
2019-04-11T00:58:09.631Z,992.82
2019-04-11T01:00:09.064Z,993.03
2019-04-11T01:02:09.428Z,992.91
2019-04-11T01:04:09.624Z,992.98
2019-04-11T01:06:10.044Z,992.87
2019-04-11T01:08:08.673Z,993.03
2019-04-11T01:10:09.811Z,992.85
2019-04-11T01:12:10.163Z,992.84
2019-04-11T01:14:09.853Z,992.97
2019-04-11T01:16:09.110Z,992.81
2019-04-11T01:18:09.738Z,993.01
2019-04-11T01:20:09.038Z,992.92
2019-04-11T01:22:09.783Z,993.01
2019-04-11T01:24:09.326Z,992.62
2019-04-11T01:26:08.921Z,993.20
2019-04-11T01:28:10.125Z,992.93
2019-04-11T01:30:09.050Z,992.91
2019-04-11T01:32:08.963Z,992.84
2019-04-11T01:34:10.523Z,992.66
2019-04-11T01:36:09.087Z,993.28
2019-04-11T01:38:10.103Z,993.20
2019-04-11T01:40:09.861Z,993.01
2019-04-11T01:42:09.176Z,993.06
2019-04-11T01:44:09.012Z,993.01
2019-04-11T01:46:09.663Z,992.92
2019-04-11T01:48:09.133Z,992.90
2019-04-11T01:50:08.952Z,993.04
2019-04-11T01:52:09.771Z,992.91
2019-04-11T01:54:09.484Z,992.77
2019-04-11T01:56:09.354Z,992.90
2019-04-11T01:58:09.216Z,992.83
2019-04-11T02:00:09.704Z,992.99
2019-04-11T02:02:09.541Z,993.24
2019-04-11T02:04:09.854Z,993.10
2019-04-11T02:06:09.729Z,993.29
2019-04-11T02:08:09.295Z,993.13
2019-04-11T02:10:09.068Z,993.05
2019-04-11T02:12:09.953Z,993.02
2019-04-11T02:14:14.286Z,993.16
2019-04-11T02:16:08.957Z,992.74
2019-04-11T02:18:09.229Z,993.31
2019-04-11T02:20:09.194Z,992.81
2019-04-11T02:22:09.034Z,993.21
2019-04-11T02:24:09.888Z,993.48
2019-04-11T02:26:10.025Z,993.10
2019-04-11T02:28:09.074Z,993.45
2019-04-11T02:30:10.966Z,993.42
2019-04-11T02:32:09.941Z,993.29
2019-04-11T02:34:09.087Z,993.18
2019-04-11T02:36:10.020Z,993.31
2019-04-11T02:38:09.798Z,992.95
2019-04-11T02:40:09.143Z,993.37
2019-04-11T02:42:09.349Z,993.42
2019-04-11T02:44:27.218Z,993.28
2019-04-11T02:46:17.105Z,993.39
2019-04-11T02:48:11.242Z,993.44
2019-04-11T02:50:10.609Z,993.52
2019-04-11T02:52:09.557Z,993.31
2019-04-11T02:54:09.123Z,993.78
2019-04-11T02:56:11.175Z,993.49
2019-04-11T02:58:10.392Z,993.75
2019-04-11T03:00:10.707Z,993.50
2019-04-11T03:02:11.061Z,993.50
2019-04-11T03:04:10.404Z,993.41
2019-04-11T03:06:11.017Z,993.63
2019-04-11T03:08:12.064Z,993.65
2019-04-11T03:10:09.888Z,993.59
2019-04-11T03:12:09.444Z,993.48
2019-04-11T03:14:09.838Z,993.54
2019-04-11T03:16:23.861Z,993.91
2019-04-11T03:18:10.315Z,993.56
2019-04-11T03:20:15.432Z,993.70
2019-04-11T03:22:09.936Z,993.79
2019-04-11T03:24:10.859Z,993.81
2019-04-11T03:26:09.837Z,993.67
2019-04-11T03:28:14.103Z,993.78
2019-04-11T03:30:14.545Z,994.07
2019-04-11T03:32:49.256Z,993.83
2019-04-11T03:35:02.879Z,993.89
2019-04-11T03:37:06.827Z,993.82
2019-04-11T03:38:29.295Z,993.69
2019-04-11T03:40:25.991Z,994.07
2019-04-11T03:42:20.466Z,993.98
2019-04-11T03:44:18.228Z,993.91
2019-04-11T03:46:26.591Z,994.00
2019-04-11T03:48:22.163Z,993.92
2019-04-11T03:50:15.689Z,994.02
2019-04-11T03:52:10.635Z,993.97
2019-04-11T03:54:09.718Z,994.01
2019-04-11T03:56:09.774Z,994.19
2019-04-11T03:58:09.136Z,993.79
2019-04-11T04:00:10.288Z,994.00
2019-04-11T04:02:10.851Z,993.93
2019-04-11T04:04:09.808Z,994.02
2019-04-11T04:06:09.436Z,994.02
2019-04-11T04:08:10.754Z,994.10
2019-04-11T04:10:12.604Z,994.23
2019-04-11T04:12:11.038Z,994.49
2019-04-11T04:14:10.486Z,994.54
2019-04-11T04:16:18.736Z,994.42
2019-04-11T04:18:12.393Z,994.55
2019-04-11T04:20:08.912Z,994.21
2019-04-11T04:22:09.176Z,994.58
2019-04-11T04:24:10.451Z,994.84
2019-04-11T04:26:11.567Z,994.83
2019-04-11T04:28:10.166Z,994.55
2019-04-11T04:30:10.646Z,994.53
2019-04-11T04:32:09.119Z,994.83
2019-04-11T04:34:11.963Z,994.55
2019-04-11T04:36:10.919Z,994.70
2019-04-11T04:38:09.410Z,994.97
2019-04-11T04:40:21.102Z,995.01
2019-04-11T04:42:21.043Z,994.43
2019-04-11T04:44:09.947Z,995.00
2019-04-11T04:46:25.930Z,994.48
2019-04-11T04:48:12.538Z,994.46
2019-04-11T04:50:10.913Z,994.70
2019-04-11T04:52:10.218Z,994.88
2019-04-11T04:54:10.071Z,994.90
2019-04-11T04:56:10.961Z,994.55
2019-04-11T04:58:09.241Z,995.33
2019-04-11T05:00:09.467Z,994.89
2019-04-11T05:02:12.749Z,994.77
2019-04-11T05:04:09.648Z,994.77
2019-04-11T05:06:10.124Z,994.76
2019-04-11T05:08:10.545Z,994.64
2019-04-11T05:10:13.306Z,994.96
2019-04-11T05:12:09.895Z,994.79
2019-04-11T05:14:10.375Z,995.16
2019-04-11T05:16:17.204Z,995.01
2019-04-11T05:18:11.189Z,994.69
2019-04-11T05:20:09.228Z,995.07
2019-04-11T05:22:09.009Z,994.87
2019-04-11T05:24:10.270Z,995.04
2019-04-11T05:26:08.977Z,994.93
2019-04-11T05:28:12.025Z,995.02
2019-04-11T05:30:09.366Z,995.09
2019-04-11T05:32:09.376Z,994.85
2019-04-11T05:34:09.938Z,995.04
2019-04-11T05:36:09.063Z,994.94
2019-04-11T05:38:10.335Z,995.24
2019-04-11T05:40:09.365Z,994.96
2019-04-11T05:42:09.221Z,995.24
2019-04-11T05:44:10.847Z,995.37
2019-04-11T05:46:25.053Z,995.32
2019-04-11T05:48:09.391Z,995.04
2019-04-11T05:50:11.964Z,995.02
2019-04-11T05:52:10.253Z,995.38
2019-04-11T05:54:10.440Z,995.19
2019-04-11T05:56:09.295Z,995.41
2019-04-11T05:58:12.751Z,995.17
2019-04-11T06:00:09.681Z,995.20
2019-04-11T06:02:09.313Z,995.33
2019-04-11T06:04:13.121Z,994.96
2019-04-11T06:06:09.325Z,995.24
2019-04-11T06:08:09.902Z,995.17
2019-04-11T06:10:11.186Z,995.13
2019-04-11T06:12:09.497Z,994.94
2019-04-11T06:14:09.369Z,995.06
2019-04-11T06:16:09.307Z,995.17
2019-04-11T06:18:10.292Z,995.28
2019-04-11T06:20:10.040Z,995.30
2019-04-11T06:22:09.314Z,995.27
2019-04-11T06:24:09.900Z,995.24
2019-04-11T06:26:10.463Z,995.27
2019-04-11T06:28:09.568Z,995.04
2019-04-11T06:30:09.569Z,995.27
2019-04-11T06:32:11.808Z,995.30
2019-04-11T06:34:09.310Z,995.19
2019-04-11T06:36:09.622Z,995.38
2019-04-11T06:38:10.091Z,995.40
2019-04-11T06:40:09.668Z,995.37
2019-04-11T06:42:09.337Z,995.42
2019-04-11T06:44:09.339Z,995.45
2019-04-11T06:46:09.349Z,995.30
2019-04-11T06:48:09.568Z,995.35
2019-04-11T06:50:09.287Z,995.38
2019-04-11T06:52:10.605Z,995.41
2019-04-11T06:54:09.599Z,995.34
2019-04-11T06:56:10.400Z,995.01
2019-04-11T06:58:09.229Z,995.36
2019-04-11T07:00:09.439Z,995.23
2019-04-11T07:02:16.537Z,995.27
2019-04-11T07:04:09.290Z,995.17
2019-04-11T07:06:09.216Z,995.43
2019-04-11T07:08:09.621Z,995.34
2019-04-11T07:10:09.590Z,995.42
2019-04-11T07:12:09.778Z,995.39
2019-04-11T07:14:10.290Z,995.16
2019-04-11T07:16:09.218Z,995.44
2019-04-11T07:18:09.874Z,995.54
2019-04-11T07:20:09.341Z,995.48
2019-04-11T07:22:09.279Z,995.53
2019-04-11T07:24:09.262Z,995.24
2019-04-11T07:26:10.184Z,995.58
2019-04-11T07:28:09.998Z,995.37
2019-04-11T07:30:09.434Z,995.47
2019-04-11T07:32:09.535Z,995.55
2019-04-11T07:34:10.547Z,995.38
2019-04-11T07:36:10.444Z,995.62
2019-04-11T07:38:09.833Z,995.50
2019-04-11T07:40:09.532Z,995.42
2019-04-11T07:42:11.166Z,995.79
2019-04-11T07:44:09.381Z,995.66
2019-04-11T07:46:09.814Z,995.44
2019-04-11T07:48:09.221Z,995.43
2019-04-11T07:50:10.078Z,995.65
2019-04-11T07:52:09.524Z,995.53
2019-04-11T07:54:09.552Z,995.69
2019-04-11T07:56:09.869Z,995.54
2019-04-11T07:58:11.580Z,995.58
2019-04-11T08:00:09.376Z,995.73
2019-04-11T08:02:10.292Z,995.84
2019-04-11T08:04:09.190Z,995.56
2019-04-11T08:06:09.439Z,995.40
2019-04-11T08:08:09.575Z,995.60
2019-04-11T08:10:10.307Z,995.60
2019-04-11T08:12:09.449Z,995.42
2019-04-11T08:14:10.481Z,995.34
2019-04-11T08:16:10.556Z,995.67
2019-04-11T08:18:10.408Z,995.41
2019-04-11T08:20:09.387Z,995.45
2019-04-11T08:22:10.534Z,995.46
2019-04-11T08:24:10.016Z,995.65
2019-04-11T08:26:09.581Z,995.66
2019-04-11T08:28:12.421Z,995.68
2019-04-11T08:30:10.800Z,995.78
2019-04-11T08:32:09.704Z,995.64
2019-04-11T08:34:09.468Z,995.22
2019-04-11T08:36:09.452Z,995.55
2019-04-11T08:38:10.127Z,995.26
2019-04-11T08:40:09.502Z,995.43
2019-04-11T08:42:09.522Z,995.18
2019-04-11T08:44:09.831Z,995.48
2019-04-11T08:46:09.338Z,995.40
2019-04-11T08:48:10.784Z,995.40
2019-04-11T08:50:10.256Z,995.35
2019-04-11T08:52:09.684Z,995.36
2019-04-11T08:54:09.637Z,995.38
2019-04-11T08:56:10.581Z,995.42
2019-04-11T08:58:09.607Z,995.42
2019-04-11T09:00:10.275Z,995.46
2019-04-11T09:02:10.700Z,995.51
2019-04-11T09:04:11.832Z,995.46
2019-04-11T09:06:09.868Z,995.42
2019-04-11T09:08:09.952Z,995.17
2019-04-11T09:10:09.631Z,995.37
2019-04-11T09:12:09.994Z,995.40
2019-04-11T09:14:09.476Z,995.41
2019-04-11T09:16:09.811Z,995.50
2019-04-11T09:18:12.196Z,995.23
2019-04-11T09:20:09.553Z,995.44
2019-04-11T09:22:09.511Z,995.32
2019-04-11T09:24:10.251Z,995.52
2019-04-11T09:26:09.806Z,995.36
2019-04-11T09:28:09.685Z,995.31
2019-04-11T09:30:12.858Z,995.48
2019-04-11T09:32:09.796Z,995.45
2019-04-11T09:34:09.507Z,995.37
2019-04-11T09:36:09.526Z,995.44
2019-04-11T09:38:10.477Z,995.45
2019-04-11T09:40:09.922Z,995.51
2019-04-11T09:42:10.582Z,995.30
2019-04-11T09:44:10.562Z,995.64
2019-04-11T09:46:10.239Z,995.46
2019-04-11T09:48:13.833Z,995.61
2019-04-11T09:50:09.821Z,995.22
2019-04-11T09:52:09.615Z,995.32
2019-04-11T09:54:10.209Z,995.47
2019-04-11T09:56:10.930Z,995.26
2019-04-11T09:58:09.686Z,995.13
2019-04-11T10:00:10.202Z,995.55
2019-04-11T10:02:10.099Z,995.21
2019-04-11T10:04:10.803Z,995.19
2019-04-11T10:06:09.765Z,995.55
2019-04-11T10:08:10.651Z,995.27
2019-04-11T10:10:10.790Z,995.39
2019-04-11T10:12:09.559Z,995.38
2019-04-11T10:14:09.575Z,995.20
2019-04-11T10:16:09.751Z,995.60
2019-04-11T10:18:20.181Z,995.46
2019-04-11T10:20:10.707Z,995.42
2019-04-11T10:22:10.996Z,995.37
2019-04-11T10:24:09.923Z,995.33
2019-04-11T10:26:09.756Z,995.51
2019-04-11T10:28:09.727Z,995.37
2019-04-11T10:30:09.672Z,995.59
2019-04-11T10:32:10.740Z,995.52
2019-04-11T10:34:09.758Z,995.52
2019-04-11T10:36:10.491Z,995.67
2019-04-11T10:38:09.698Z,995.23
2019-04-11T10:40:10.194Z,995.02
2019-04-11T10:42:10.585Z,995.27
2019-04-11T10:44:10.023Z,995.35
2019-04-11T10:46:09.835Z,995.30
2019-04-11T10:48:09.662Z,995.31
2019-04-11T10:50:09.548Z,995.34
2019-04-11T10:52:09.917Z,995.45
2019-04-11T10:54:09.693Z,995.30
2019-04-11T10:56:10.732Z,995.47
2019-04-11T10:58:10.831Z,995.32
2019-04-11T11:00:09.645Z,995.19
2019-04-11T11:02:10.742Z,995.18
2019-04-11T11:04:09.641Z,995.44
2019-04-11T11:06:09.743Z,995.07
2019-04-11T11:08:09.972Z,995.22
2019-04-11T11:10:09.567Z,995.36
2019-04-11T11:12:10.565Z,995.20
2019-04-11T11:14:10.197Z,995.39
2019-04-11T11:16:09.802Z,995.38
2019-04-11T11:20:21.182Z,995.56
2019-04-11T11:22:10.496Z,995.26
2019-04-11T11:24:10.764Z,995.71
2019-04-11T11:26:09.756Z,995.26
2019-04-11T11:28:09.729Z,995.21
2019-04-11T11:30:10.804Z,995.19
2019-04-11T11:32:13.327Z,995.42
2019-04-11T11:34:15.674Z,995.31
2019-04-11T11:36:10.790Z,995.53
2019-04-11T11:38:09.725Z,995.36
2019-04-11T11:40:14.577Z,995.25
2019-04-11T11:42:10.362Z,995.39
2019-04-11T11:44:09.816Z,995.23
2019-04-11T11:46:10.073Z,995.49
2019-04-11T11:48:14.994Z,995.62
2019-04-11T11:50:14.669Z,995.14
2019-04-11T11:52:11.120Z,995.16
2019-04-11T11:54:11.369Z,994.99
2019-04-11T11:56:09.828Z,995.56
2019-04-11T11:58:14.335Z,995.53
2019-04-11T12:00:10.219Z,995.63
2019-04-11T12:02:10.680Z,995.51
2019-04-11T12:04:10.746Z,995.26
2019-04-11T12:06:10.203Z,995.47
2019-04-11T12:08:12.263Z,995.64
2019-04-11T12:10:11.178Z,995.27
2019-04-11T12:12:11.220Z,995.50
2019-04-11T12:14:09.936Z,995.47
2019-04-11T12:16:10.077Z,995.61
2019-04-11T12:18:11.048Z,995.51
2019-04-11T12:20:12.679Z,995.76
2019-04-11T12:22:10.483Z,995.54
2019-04-11T12:24:09.794Z,995.13
2019-04-11T12:26:12.481Z,995.70
2019-04-11T12:28:13.138Z,995.58
2019-04-11T12:30:10.897Z,995.62
2019-04-11T12:32:10.337Z,995.56
2019-04-11T12:34:10.264Z,995.51
2019-04-11T12:36:09.894Z,995.53
2019-04-11T12:38:09.982Z,995.49
2019-04-11T12:40:09.805Z,995.42
2019-04-11T12:42:10.208Z,995.16
2019-04-11T12:44:09.802Z,995.56
2019-04-11T12:46:09.815Z,995.25
2019-04-11T12:48:11.956Z,995.41
2019-04-11T12:50:09.842Z,995.28
2019-04-11T12:52:09.956Z,995.38
2019-04-11T12:54:09.924Z,995.34
2019-04-11T12:56:10.185Z,995.37
2019-04-11T12:58:09.939Z,995.13
2019-04-11T13:00:09.979Z,995.05
2019-04-11T13:02:09.814Z,995.33
2019-04-11T13:04:09.731Z,995.23
2019-04-11T13:06:10.447Z,995.21
2019-04-11T13:08:09.947Z,995.52
2019-04-11T13:10:09.962Z,995.23
2019-04-11T13:12:09.998Z,995.30
2019-04-11T13:14:12.139Z,995.19
2019-04-11T13:16:12.445Z,995.32
2019-04-11T13:18:10.522Z,995.17
2019-04-11T13:20:10.529Z,995.85
2019-04-11T13:22:10.212Z,995.28
2019-04-11T13:24:09.986Z,995.16
2019-04-11T13:26:10.407Z,994.96
2019-04-11T13:28:10.516Z,995.04
2019-04-11T13:30:10.292Z,995.17
2019-04-11T13:32:10.190Z,995.35
2019-04-11T13:34:11.251Z,995.53
2019-04-11T13:36:09.902Z,995.16
2019-04-11T13:38:09.848Z,995.00
2019-04-11T13:40:10.267Z,995.07
2019-04-11T13:42:09.944Z,994.97
2019-04-11T13:44:10.000Z,995.19
2019-04-11T13:46:10.379Z,994.93
2019-04-11T13:48:10.237Z,995.34
2019-04-11T13:50:16.259Z,994.75
2019-04-11T13:52:09.811Z,995.04
2019-04-11T13:54:09.917Z,994.86
2019-04-11T13:56:10.206Z,995.03
2019-04-11T13:58:09.935Z,994.67
2019-04-11T14:00:10.155Z,994.95
2019-04-11T14:02:10.163Z,995.20
2019-04-11T14:04:10.396Z,995.00
2019-04-11T14:06:10.387Z,995.00
2019-04-11T14:08:10.302Z,995.04
2019-04-11T14:10:10.417Z,995.01
2019-04-11T14:12:10.224Z,995.23
2019-04-11T14:14:10.342Z,995.19
2019-04-11T14:16:10.750Z,995.28
2019-04-11T14:18:11.674Z,994.66
2019-04-11T14:20:11.642Z,995.02
2019-04-11T14:22:13.593Z,995.18
2019-04-11T14:24:11.683Z,994.96
2019-04-11T14:26:10.519Z,994.69
2019-04-11T14:28:10.108Z,994.66
2019-04-11T14:30:10.535Z,994.62
2019-04-11T14:32:10.215Z,995.14
2019-04-11T14:34:10.458Z,994.84
2019-04-11T14:36:10.575Z,994.86
2019-04-11T14:38:10.375Z,995.13
2019-04-11T14:40:10.950Z,994.80
2019-04-11T14:42:12.090Z,995.03
2019-04-11T14:44:10.520Z,995.14
2019-04-11T14:46:10.484Z,995.06
2019-04-11T14:48:10.719Z,994.98
2019-04-11T14:50:11.076Z,995.15
2019-04-11T14:52:10.360Z,995.08
2019-04-11T14:54:11.799Z,994.89
2019-04-11T14:56:10.385Z,995.01
2019-04-11T14:58:10.502Z,995.44
2019-04-11T15:00:10.534Z,995.22
2019-04-11T15:02:10.424Z,994.97
2019-04-11T15:04:13.427Z,994.98
2019-04-11T15:06:10.436Z,994.84
2019-04-11T15:08:10.460Z,994.99
2019-04-11T15:10:10.567Z,995.03
2019-04-11T15:12:10.587Z,994.68
2019-04-11T15:14:10.380Z,994.91
2019-04-11T15:16:11.112Z,994.68
2019-04-11T15:18:10.169Z,995.00
2019-04-11T15:20:10.431Z,995.05
2019-04-11T15:22:10.301Z,994.90
2019-04-11T15:24:10.271Z,995.24
2019-04-11T15:26:10.426Z,994.87
2019-04-11T15:28:12.711Z,995.04
2019-04-11T15:30:10.478Z,995.12
2019-04-11T15:32:10.595Z,994.83
2019-04-11T15:34:10.425Z,994.73
2019-04-11T15:36:10.305Z,995.14
2019-04-11T15:38:11.697Z,994.74
2019-04-11T15:40:10.535Z,994.91
2019-04-11T15:42:10.362Z,994.87
2019-04-11T15:44:11.721Z,994.78
2019-04-11T15:46:10.587Z,994.82
2019-04-11T15:48:10.556Z,994.88
2019-04-11T15:50:10.597Z,994.91
2019-04-11T15:52:10.422Z,995.01
2019-04-11T15:54:10.528Z,995.08
2019-04-11T15:56:10.536Z,994.99
2019-04-11T15:58:12.552Z,995.24
2019-04-11T16:00:13.587Z,994.53
2019-04-11T16:02:10.339Z,994.77
2019-04-11T16:04:10.583Z,994.85
2019-04-11T16:06:10.791Z,995.08
2019-04-11T16:08:10.597Z,994.76
2019-04-11T16:10:11.941Z,994.61
2019-04-11T16:12:10.526Z,994.65
2019-04-11T16:14:10.537Z,994.66
2019-04-11T16:16:12.146Z,994.80
2019-04-11T16:18:10.569Z,994.42
2019-04-11T16:20:10.573Z,994.80
2019-04-11T16:22:10.583Z,994.95
2019-04-11T16:24:10.553Z,994.72
2019-04-11T16:26:10.420Z,994.75
2019-04-11T16:28:10.719Z,995.06
2019-04-11T16:30:10.989Z,994.92
2019-04-11T16:32:10.281Z,995.14
2019-04-11T16:34:10.458Z,994.92
2019-04-11T16:36:10.559Z,995.03
2019-04-11T16:38:10.587Z,995.06
2019-04-11T16:40:10.288Z,995.04
2019-04-11T16:42:10.503Z,995.59
2019-04-11T16:44:10.518Z,995.14
2019-04-11T16:46:10.516Z,995.28
2019-04-11T16:48:10.526Z,994.76
2019-04-11T16:50:11.099Z,995.12
2019-04-11T16:52:10.553Z,995.68
2019-04-11T16:54:10.783Z,995.15
2019-04-11T16:56:12.689Z,994.93
2019-04-11T16:58:15.121Z,995.45
2019-04-11T17:00:10.602Z,995.28
2019-04-11T17:02:10.515Z,995.15
2019-04-11T17:04:10.631Z,995.07
2019-04-11T17:06:10.397Z,995.09
2019-04-11T17:08:10.549Z,994.97
2019-04-11T17:10:10.665Z,995.20
2019-04-11T17:12:10.676Z,995.25
2019-04-11T17:14:12.029Z,995.56
2019-04-11T17:16:10.598Z,995.72
2019-04-11T17:18:10.704Z,995.10
2019-04-11T17:20:10.624Z,995.37
2019-04-11T17:22:10.524Z,995.21
2019-04-11T17:24:10.641Z,995.44
2019-04-11T17:26:10.654Z,995.84
2019-04-11T17:28:10.480Z,995.48
2019-04-11T17:30:10.568Z,995.65
2019-04-11T17:32:10.539Z,995.41
2019-04-11T17:34:10.497Z,995.62
2019-04-11T17:36:10.810Z,995.74
2019-04-11T17:38:10.353Z,995.27
2019-04-11T17:40:10.640Z,995.36
2019-04-11T17:42:10.803Z,995.53
2019-04-11T17:44:10.762Z,995.42
2019-04-11T17:46:12.925Z,995.67
2019-04-11T17:48:11.815Z,995.58
2019-04-11T17:50:10.592Z,995.54
2019-04-11T17:52:10.509Z,995.62
2019-04-11T17:54:10.823Z,995.65
2019-04-11T17:56:10.723Z,995.48
2019-04-11T17:58:10.742Z,995.61
2019-04-11T18:00:10.639Z,995.51
2019-04-11T18:02:11.131Z,995.77
2019-04-11T18:04:13.287Z,995.74
2019-04-11T18:06:10.797Z,995.88
2019-04-11T18:08:10.538Z,995.92
2019-04-11T18:10:10.703Z,995.86
2019-04-11T18:12:10.617Z,995.74
2019-04-11T18:14:10.832Z,996.09
2019-04-11T18:16:10.839Z,995.62
2019-04-11T18:18:10.659Z,995.93
2019-04-11T18:20:10.679Z,995.80
2019-04-11T18:22:13.285Z,995.55
2019-04-11T18:24:10.691Z,996.03
2019-04-11T18:26:10.581Z,996.03
2019-04-11T18:28:10.919Z,996.12
2019-04-11T18:30:10.732Z,996.07
2019-04-11T18:32:10.609Z,996.21
2019-04-11T18:34:11.816Z,996.03
2019-04-11T18:36:10.644Z,995.90
2019-04-11T18:38:10.776Z,996.20
2019-04-11T18:40:10.891Z,995.81
2019-04-11T18:42:10.693Z,996.05
2019-04-11T18:44:10.705Z,995.94
2019-04-11T18:46:10.482Z,996.35
2019-04-11T18:48:10.724Z,996.19
2019-04-11T18:50:10.644Z,996.16
2019-04-11T18:52:19.123Z,996.32
2019-04-11T18:54:11.891Z,996.51
2019-04-11T18:56:10.783Z,996.33
2019-04-11T18:58:10.564Z,996.69
2019-04-11T19:00:10.706Z,996.55
2019-04-11T19:02:10.602Z,996.45
2019-04-11T19:04:12.018Z,996.56
2019-04-11T19:06:12.902Z,996.09
2019-04-11T19:08:12.849Z,996.37
2019-04-11T19:10:14.580Z,996.54
2019-04-11T19:12:10.707Z,996.46
2019-04-11T19:14:10.678Z,996.35
2019-04-11T19:16:10.714Z,996.64
2019-04-11T19:18:10.804Z,996.64
2019-04-11T19:20:12.351Z,996.67
2019-04-11T19:22:10.831Z,996.50
2019-04-11T19:24:12.814Z,996.93
2019-04-11T19:26:14.524Z,996.80
2019-04-11T19:28:10.632Z,996.50
2019-04-11T19:30:10.573Z,996.72
2019-04-11T19:32:10.679Z,996.72
2019-04-11T19:34:10.685Z,996.97
2019-04-11T19:36:12.204Z,996.67
2019-04-11T19:38:12.273Z,996.73
2019-04-11T19:40:10.633Z,996.96
2019-04-11T19:42:10.950Z,996.95
2019-04-11T19:44:10.742Z,997.27
2019-04-11T19:46:10.869Z,996.85
2019-04-11T19:48:10.660Z,996.70
2019-04-11T19:50:10.982Z,997.11
2019-04-11T19:52:10.439Z,996.88
2019-04-11T19:54:10.701Z,996.85
2019-04-11T19:56:10.798Z,997.11
2019-04-11T19:58:10.831Z,996.61
2019-04-11T20:00:10.719Z,996.92
2019-04-11T20:02:10.850Z,997.16
2019-04-11T20:04:10.749Z,997.04
2019-04-11T20:06:13.162Z,996.72
2019-04-11T20:08:12.352Z,996.88
2019-04-11T20:10:10.595Z,996.74
2019-04-11T20:12:10.559Z,997.03
2019-04-11T20:14:10.729Z,996.76
2019-04-11T20:16:12.563Z,997.07
2019-04-11T20:18:10.716Z,997.05
2019-04-11T20:20:10.862Z,997.35
2019-04-11T20:22:10.525Z,996.91
2019-04-11T20:24:14.179Z,997.15
2019-04-11T20:26:10.700Z,996.91
2019-04-11T20:28:10.805Z,997.21
2019-04-11T20:30:10.621Z,997.06
2019-04-11T20:32:10.765Z,997.19
2019-04-11T20:34:10.323Z,996.80
2019-04-11T20:36:11.360Z,997.34
2019-04-11T20:38:10.255Z,996.83
2019-04-11T20:40:10.730Z,997.10
2019-04-11T20:42:10.477Z,996.84
2019-04-11T20:44:10.564Z,996.69
2019-04-11T20:46:10.398Z,996.88
2019-04-11T20:48:10.409Z,996.99
2019-04-11T20:50:10.423Z,997.11
2019-04-11T20:52:10.243Z,996.84
2019-04-11T20:54:10.443Z,997.31
2019-04-11T20:56:10.722Z,997.40
2019-04-11T20:58:11.020Z,997.75
2019-04-11T21:00:12.435Z,996.89
2019-04-11T21:02:10.478Z,997.27
2019-04-11T21:04:10.504Z,997.13
2019-04-11T21:06:10.516Z,997.21
2019-04-11T21:08:10.322Z,997.09
2019-04-11T21:10:10.422Z,996.82
2019-04-11T21:12:10.376Z,997.20
2019-04-11T21:14:10.454Z,997.29
2019-04-11T21:16:10.256Z,997.45
2019-04-11T21:18:10.493Z,997.06
2019-04-11T21:20:10.392Z,997.18
2019-04-11T21:22:10.707Z,997.59
2019-04-11T21:24:10.312Z,997.23
2019-04-11T21:26:10.325Z,997.28
2019-04-11T21:28:10.551Z,997.42
2019-04-11T21:30:10.485Z,997.36
2019-04-11T21:32:10.354Z,997.54
2019-04-11T21:34:10.421Z,997.49
2019-04-11T21:36:10.381Z,997.29
2019-04-11T21:38:10.341Z,997.55
2019-04-11T21:40:10.613Z,997.40
2019-04-11T21:42:10.371Z,997.66
2019-04-11T21:44:10.431Z,997.33
2019-04-11T21:46:10.209Z,997.32
2019-04-11T21:48:10.332Z,997.18
2019-04-11T21:50:10.469Z,997.88
2019-04-11T21:52:12.292Z,997.15
2019-04-11T21:54:14.638Z,997.60
2019-04-11T21:56:10.495Z,997.36
2019-04-11T21:58:10.415Z,997.26
2019-04-11T22:00:10.201Z,997.50
2019-04-11T22:02:10.432Z,997.49
2019-04-11T22:04:10.644Z,997.45
2019-04-11T22:06:10.399Z,996.74
2019-04-11T22:08:10.524Z,997.33
2019-04-11T22:10:10.584Z,997.30
2019-04-11T22:12:10.496Z,997.26
2019-04-11T22:14:11.204Z,997.78
2019-04-11T22:16:13.223Z,997.20
2019-04-11T22:18:10.433Z,997.48
2019-04-11T22:20:10.441Z,997.94
2019-04-11T22:22:10.273Z,997.52
2019-04-11T22:24:10.453Z,997.38
2019-04-11T22:26:10.470Z,997.66
2019-04-11T22:28:10.567Z,997.39
2019-04-11T22:30:10.592Z,997.47
2019-04-11T22:32:10.506Z,997.22
2019-04-11T22:34:10.741Z,997.41
2019-04-11T22:36:10.301Z,997.35
2019-04-11T22:38:10.543Z,997.46
2019-04-11T22:40:10.491Z,997.47
2019-04-11T22:42:10.339Z,997.59
2019-04-11T22:44:10.587Z,997.56
2019-04-11T22:46:20.289Z,997.85
2019-04-11T22:48:10.330Z,997.57
2019-04-11T22:50:10.801Z,997.48
2019-04-11T22:52:11.365Z,997.55
2019-04-11T22:54:13.002Z,997.35
2019-04-11T22:56:11.774Z,997.67
2019-04-11T22:58:13.964Z,997.49
2019-04-11T23:00:14.714Z,997.21
2019-04-11T23:02:10.292Z,998.07
2019-04-11T23:04:10.482Z,997.52
2019-04-11T23:06:10.453Z,997.54
2019-04-11T23:08:10.609Z,997.62
2019-04-11T23:10:10.625Z,997.47
2019-04-11T23:12:12.709Z,997.69
2019-04-11T23:14:10.642Z,997.72
2019-04-11T23:16:12.049Z,997.56
2019-04-11T23:18:11.813Z,997.52
2019-04-11T23:20:11.864Z,997.29
2019-04-11T23:22:12.150Z,997.52
2019-04-11T23:24:12.126Z,997.72
2019-04-11T23:26:10.514Z,997.67
2019-04-11T23:28:10.687Z,997.29
2019-04-11T23:30:10.493Z,997.45
2019-04-11T23:32:10.750Z,997.73
2019-04-11T23:34:10.770Z,998.12
2019-04-11T23:36:10.574Z,997.80
2019-04-11T23:38:10.379Z,997.50
2019-04-11T23:40:10.331Z,997.60
2019-04-11T23:42:10.607Z,997.55
2019-04-11T23:44:10.635Z,997.64
2019-04-11T23:46:10.630Z,997.49
2019-04-11T23:48:10.744Z,997.53
2019-04-11T23:50:10.645Z,997.44
2019-04-11T23:52:10.666Z,997.74
2019-04-11T23:54:10.442Z,997.37
2019-04-11T23:56:10.890Z,997.64
2019-04-11T23:58:10.427Z,997.71
